sensor_id;sensor_type;location;lat;lon;timestamp;P1;durP1;ratioP1;P2;durP2;ratioP2
66421;SDS011;53228;51.380;0.098;2024-02-21T00:02:23;3.88;;;2.22;;
66421;SDS011;53228;51.380;0.098;2024-02-21T00:04:51;3.88;;;2.05;;
66421;SDS011;53228;51.380;0.098;2024-02-21T00:07:19;2.97;;;2.10;;
66421;SDS011;53228;51.380;0.098;2024-02-21T00:09:47;5.47;;;2.22;;
66421;SDS011;53228;51.380;0.098;2024-02-21T00:12:15;4.45;;;2.63;;
66421;SDS011;53228;51.380;0.098;2024-02-21T00:14:43;3.67;;;2.38;;
66421;SDS011;53228;51.380;0.098;2024-02-21T00:17:11;4.63;;;2.00;;
66421;SDS011;53228;51.380;0.098;2024-02-21T00:19:38;3.17;;;2.28;;
66421;SDS011;53228;51.380;0.098;2024-02-21T00:22:06;1.58;;;1.48;;
66421;SDS011;53228;51.380;0.098;2024-02-21T00:24:35;1.90;;;1.70;;
66421;SDS011;53228;51.380;0.098;2024-02-21T00:27:03;1.85;;;1.50;;
66421;SDS011;53228;51.380;0.098;2024-02-21T00:29:30;2.30;;;1.52;;
66421;SDS011;53228;51.380;0.098;2024-02-21T00:31:58;1.50;;;1.40;;
66421;SDS011;53228;51.380;0.098;2024-02-21T00:34:26;1.73;;;1.50;;
66421;SDS011;53228;51.380;0.098;2024-02-21T00:36:54;1.70;;;1.60;;
66421;SDS011;53228;51.380;0.098;2024-02-21T00:39:21;9.45;;;2.17;;
66421;SDS011;53228;51.380;0.098;2024-02-21T00:41:49;1.75;;;1.60;;
66421;SDS011;53228;51.380;0.098;2024-02-21T00:44:17;1.60;;;1.50;;
66421;SDS011;53228;51.380;0.098;2024-02-21T00:46:45;2.85;;;1.70;;
66421;SDS011;53228;51.380;0.098;2024-02-21T00:49:14;2.85;;;2.13;;
66421;SDS011;53228;51.380;0.098;2024-02-21T00:51:41;2.55;;;2.05;;
66421;SDS011;53228;51.380;0.098;2024-02-21T00:54:09;3.50;;;2.20;;
66421;SDS011;53228;51.380;0.098;2024-02-21T00:56:37;1.73;;;1.63;;
66421;SDS011;53228;51.380;0.098;2024-02-21T00:59:05;2.35;;;1.55;;
66421;SDS011;53228;51.380;0.098;2024-02-21T01:01:33;2.38;;;1.52;;
66421;SDS011;53228;51.380;0.098;2024-02-21T01:04:00;2.13;;;1.90;;
66421;SDS011;53228;51.380;0.098;2024-02-21T01:06:29;1.65;;;1.45;;
66421;SDS011;53228;51.380;0.098;2024-02-21T01:08:56;1.77;;;1.65;;
66421;SDS011;53228;51.380;0.098;2024-02-21T01:11:24;2.78;;;2.10;;
66421;SDS011;53228;51.380;0.098;2024-02-21T01:13:52;4.43;;;2.47;;
66421;SDS011;53228;51.380;0.098;2024-02-21T01:16:20;4.88;;;1.75;;
66421;SDS011;53228;51.380;0.098;2024-02-21T01:18:47;7.07;;;2.53;;
66421;SDS011;53228;51.380;0.098;2024-02-21T01:21:15;5.20;;;2.60;;
66421;SDS011;53228;51.380;0.098;2024-02-21T01:23:43;7.13;;;2.75;;
66421;SDS011;53228;51.380;0.098;2024-02-21T01:26:10;2.90;;;1.65;;
66421;SDS011;53228;51.380;0.098;2024-02-21T01:28:41;2.83;;;2.28;;
66421;SDS011;53228;51.380;0.098;2024-02-21T01:31:09;2.55;;;2.03;;
66421;SDS011;53228;51.380;0.098;2024-02-21T01:33:37;7.88;;;2.40;;
66421;SDS011;53228;51.380;0.098;2024-02-21T01:36:06;5.53;;;2.65;;
66421;SDS011;53228;51.380;0.098;2024-02-21T01:38:34;6.75;;;2.80;;
66421;SDS011;53228;51.380;0.098;2024-02-21T01:41:02;8.32;;;2.97;;
66421;SDS011;53228;51.380;0.098;2024-02-21T01:43:30;7.65;;;2.85;;
66421;SDS011;53228;51.380;0.098;2024-02-21T01:45:58;6.25;;;3.47;;
66421;SDS011;53228;51.380;0.098;2024-02-21T01:48:26;7.43;;;2.65;;
66421;SDS011;53228;51.380;0.098;2024-02-21T01:50:54;4.20;;;2.67;;
66421;SDS011;53228;51.380;0.098;2024-02-21T01:53:22;9.10;;;2.80;;
66421;SDS011;53228;51.380;0.098;2024-02-21T01:55:54;6.07;;;2.78;;
66421;SDS011;53228;51.380;0.098;2024-02-21T01:58:22;5.13;;;2.30;;
66421;SDS011;53228;51.380;0.098;2024-02-21T02:00:51;4.20;;;2.45;;
66421;SDS011;53228;51.380;0.098;2024-02-21T02:03:19;5.15;;;2.50;;
66421;SDS011;53228;51.380;0.098;2024-02-21T02:05:47;3.38;;;2.65;;
66421;SDS011;53228;51.380;0.098;2024-02-21T02:08:17;7.60;;;2.92;;
66421;SDS011;53228;51.380;0.098;2024-02-21T02:10:45;2.95;;;2.40;;
66421;SDS011;53228;51.380;0.098;2024-02-21T02:13:13;4.53;;;2.10;;
66421;SDS011;53228;51.380;0.098;2024-02-21T02:15:43;9.90;;;2.75;;
66421;SDS011;53228;51.380;0.098;2024-02-21T02:18:11;4.30;;;2.30;;
66421;SDS011;53228;51.380;0.098;2024-02-21T02:20:40;5.18;;;2.42;;
66421;SDS011;53228;51.380;0.098;2024-02-21T02:23:11;4.82;;;2.80;;
66421;SDS011;53228;51.380;0.098;2024-02-21T02:25:44;4.68;;;2.72;;
66421;SDS011;53228;51.380;0.098;2024-02-21T02:28:16;4.20;;;2.83;;
66421;SDS011;53228;51.380;0.098;2024-02-21T02:30:44;3.88;;;1.92;;
66421;SDS011;53228;51.380;0.098;2024-02-21T02:33:12;4.47;;;1.73;;
66421;SDS011;53228;51.380;0.098;2024-02-21T02:35:40;4.70;;;2.50;;
66421;SDS011;53228;51.380;0.098;2024-02-21T02:38:07;2.88;;;1.90;;
66421;SDS011;53228;51.380;0.098;2024-02-21T02:40:35;2.92;;;1.98;;
66421;SDS011;53228;51.380;0.098;2024-02-21T02:43:03;5.30;;;2.45;;
66421;SDS011;53228;51.380;0.098;2024-02-21T02:45:31;5.55;;;2.58;;
66421;SDS011;53228;51.380;0.098;2024-02-21T02:47:59;7.63;;;2.42;;
66421;SDS011;53228;51.380;0.098;2024-02-21T02:50:27;5.30;;;2.53;;
66421;SDS011;53228;51.380;0.098;2024-02-21T02:52:55;4.55;;;2.30;;
66421;SDS011;53228;51.380;0.098;2024-02-21T02:55:23;3.97;;;2.10;;
66421;SDS011;53228;51.380;0.098;2024-02-21T02:57:51;5.43;;;2.50;;
66421;SDS011;53228;51.380;0.098;2024-02-21T03:00:19;5.82;;;2.70;;
66421;SDS011;53228;51.380;0.098;2024-02-21T03:02:48;5.55;;;2.20;;
66421;SDS011;53228;51.380;0.098;2024-02-21T03:05:20;6.70;;;2.30;;
66421;SDS011;53228;51.380;0.098;2024-02-21T03:07:49;6.53;;;2.92;;
66421;SDS011;53228;51.380;0.098;2024-02-21T03:10:17;6.07;;;2.55;;
66421;SDS011;53228;51.380;0.098;2024-02-21T03:12:45;5.80;;;2.72;;
66421;SDS011;53228;51.380;0.098;2024-02-21T03:15:13;3.50;;;2.15;;
66421;SDS011;53228;51.380;0.098;2024-02-21T03:17:41;9.07;;;2.50;;
66421;SDS011;53228;51.380;0.098;2024-02-21T03:20:09;5.88;;;2.67;;
66421;SDS011;53228;51.380;0.098;2024-02-21T03:22:39;6.25;;;2.60;;
66421;SDS011;53228;51.380;0.098;2024-02-21T03:25:08;9.77;;;2.72;;
66421;SDS011;53228;51.380;0.098;2024-02-21T03:27:37;4.57;;;2.58;;
66421;SDS011;53228;51.380;0.098;2024-02-21T03:30:05;6.75;;;2.30;;
66421;SDS011;53228;51.380;0.098;2024-02-21T03:32:34;3.88;;;2.10;;
66421;SDS011;53228;51.380;0.098;2024-02-21T03:35:02;12.98;;;2.42;;
66421;SDS011;53228;51.380;0.098;2024-02-21T03:37:30;4.43;;;1.92;;
66421;SDS011;53228;51.380;0.098;2024-02-21T03:39:57;5.78;;;1.90;;
66421;SDS011;53228;51.380;0.098;2024-02-21T03:42:25;5.82;;;2.47;;
66421;SDS011;53228;51.380;0.098;2024-02-21T03:44:53;3.47;;;1.90;;
66421;SDS011;53228;51.380;0.098;2024-02-21T03:47:20;5.93;;;2.45;;
66421;SDS011;53228;51.380;0.098;2024-02-21T03:49:48;6.80;;;2.00;;
66421;SDS011;53228;51.380;0.098;2024-02-21T03:52:16;3.45;;;2.08;;
66421;SDS011;53228;51.380;0.098;2024-02-21T03:54:44;7.15;;;1.65;;
66421;SDS011;53228;51.380;0.098;2024-02-21T03:57:11;4.57;;;2.25;;
66421;SDS011;53228;51.380;0.098;2024-02-21T03:59:39;5.88;;;1.70;;
66421;SDS011;53228;51.380;0.098;2024-02-21T04:02:10;3.10;;;1.70;;
66421;SDS011;53228;51.380;0.098;2024-02-21T04:04:42;2.08;;;1.33;;
66421;SDS011;53228;51.380;0.098;2024-02-21T04:07:10;3.28;;;1.40;;
66421;SDS011;53228;51.380;0.098;2024-02-21T04:09:38;4.15;;;1.65;;
66421;SDS011;53228;51.380;0.098;2024-02-21T04:12:07;5.50;;;1.70;;
66421;SDS011;53228;51.380;0.098;2024-02-21T04:17:04;2.05;;;1.23;;
66421;SDS011;53228;51.380;0.098;2024-02-21T04:19:32;1.98;;;1.27;;
66421;SDS011;53228;51.380;0.098;2024-02-21T04:22:01;2.45;;;1.42;;
66421;SDS011;53228;51.380;0.098;2024-02-21T04:24:28;1.60;;;1.30;;
66421;SDS011;53228;51.380;0.098;2024-02-21T04:26:56;1.98;;;1.33;;
66421;SDS011;53228;51.380;0.098;2024-02-21T04:29:24;2.10;;;1.50;;
66421;SDS011;53228;51.380;0.098;2024-02-21T04:31:51;0.93;;;0.80;;
66421;SDS011;53228;51.380;0.098;2024-02-21T04:34:19;1.17;;;0.82;;
66421;SDS011;53228;51.380;0.098;2024-02-21T04:36:47;1.02;;;0.73;;
66421;SDS011;53228;51.380;0.098;2024-02-21T04:39:15;1.67;;;1.17;;
66421;SDS011;53228;51.380;0.098;2024-02-21T04:41:42;2.97;;;1.08;;
66421;SDS011;53228;51.380;0.098;2024-02-21T04:44:11;1.80;;;1.40;;
66421;SDS011;53228;51.380;0.098;2024-02-21T04:46:41;2.42;;;1.00;;
66421;SDS011;53228;51.380;0.098;2024-02-21T04:49:10;1.85;;;1.10;;
66421;SDS011;53228;51.380;0.098;2024-02-21T04:51:37;2.45;;;1.00;;
66421;SDS011;53228;51.380;0.098;2024-02-21T04:54:07;2.15;;;1.10;;
66421;SDS011;53228;51.380;0.098;2024-02-21T04:56:35;6.55;;;1.17;;
66421;SDS011;53228;51.380;0.098;2024-02-21T04:59:03;1.77;;;0.98;;
66421;SDS011;53228;51.380;0.098;2024-02-21T05:01:31;2.25;;;0.90;;
66421;SDS011;53228;51.380;0.098;2024-02-21T05:03:59;1.65;;;0.95;;
66421;SDS011;53228;51.380;0.098;2024-02-21T05:06:26;1.02;;;0.90;;
66421;SDS011;53228;51.380;0.098;2024-02-21T05:08:54;4.07;;;0.75;;
66421;SDS011;53228;51.380;0.098;2024-02-21T05:11:22;1.67;;;0.70;;
66421;SDS011;53228;51.380;0.098;2024-02-21T05:13:50;0.68;;;0.40;;
66421;SDS011;53228;51.380;0.098;2024-02-21T05:16:18;2.38;;;0.93;;
66421;SDS011;53228;51.380;0.098;2024-02-21T05:18:46;1.10;;;0.80;;
66421;SDS011;53228;51.380;0.098;2024-02-21T05:21:14;0.70;;;0.70;;
66421;SDS011;53228;51.380;0.098;2024-02-21T05:23:42;1.00;;;0.43;;
66421;SDS011;53228;51.380;0.098;2024-02-21T05:26:10;1.75;;;0.63;;
66421;SDS011;53228;51.380;0.098;2024-02-21T05:28:37;3.05;;;0.65;;
66421;SDS011;53228;51.380;0.098;2024-02-21T05:31:05;0.60;;;0.60;;
66421;SDS011;53228;51.380;0.098;2024-02-21T05:33:33;0.73;;;0.73;;
66421;SDS011;53228;51.380;0.098;2024-02-21T05:36:00;1.27;;;0.60;;
66421;SDS011;53228;51.380;0.098;2024-02-21T05:38:29;0.90;;;0.80;;
66421;SDS011;53228;51.380;0.098;2024-02-21T05:40:57;2.30;;;0.80;;
66421;SDS011;53228;51.380;0.098;2024-02-21T05:43:25;1.17;;;0.93;;
66421;SDS011;53228;51.380;0.098;2024-02-21T05:45:52;1.13;;;0.80;;
66421;SDS011;53228;51.380;0.098;2024-02-21T05:48:21;0.82;;;0.70;;
66421;SDS011;53228;51.380;0.098;2024-02-21T05:50:50;1.90;;;0.90;;
66421;SDS011;53228;51.380;0.098;2024-02-21T05:53:18;0.63;;;0.47;;
66421;SDS011;53228;51.380;0.098;2024-02-21T05:55:45;1.92;;;0.73;;
66421;SDS011;53228;51.380;0.098;2024-02-21T05:58:13;2.55;;;0.80;;
66421;SDS011;53228;51.380;0.098;2024-02-21T06:00:41;1.63;;;0.68;;
66421;SDS011;53228;51.380;0.098;2024-02-21T06:03:09;3.90;;;1.08;;
66421;SDS011;53228;51.380;0.098;2024-02-21T06:05:37;2.67;;;0.80;;
66421;SDS011;53228;51.380;0.098;2024-02-21T06:08:05;1.88;;;0.73;;
66421;SDS011;53228;51.380;0.098;2024-02-21T06:10:34;1.00;;;0.60;;
66421;SDS011;53228;51.380;0.098;2024-02-21T06:13:01;3.15;;;1.80;;
66421;SDS011;53228;51.380;0.098;2024-02-21T06:15:29;5.00;;;2.80;;
66421;SDS011;53228;51.380;0.098;2024-02-21T06:17:57;2.33;;;1.17;;
66421;SDS011;53228;51.380;0.098;2024-02-21T06:20:24;1.33;;;1.08;;
66421;SDS011;53228;51.380;0.098;2024-02-21T06:22:53;3.10;;;1.20;;
66421;SDS011;53228;51.380;0.098;2024-02-21T06:25:21;1.55;;;0.95;;
66421;SDS011;53228;51.380;0.098;2024-02-21T06:27:48;2.03;;;1.42;;
66421;SDS011;53228;51.380;0.098;2024-02-21T06:30:16;4.93;;;1.52;;
66421;SDS011;53228;51.380;0.098;2024-02-21T06:32:44;2.20;;;1.50;;
66421;SDS011;53228;51.380;0.098;2024-02-21T06:35:12;2.63;;;1.38;;
66421;SDS011;53228;51.380;0.098;2024-02-21T06:37:40;2.50;;;1.55;;
66421;SDS011;53228;51.380;0.098;2024-02-21T06:40:08;3.28;;;1.52;;
66421;SDS011;53228;51.380;0.098;2024-02-21T06:42:36;2.67;;;1.60;;
66421;SDS011;53228;51.380;0.098;2024-02-21T06:45:04;1.65;;;1.20;;
66421;SDS011;53228;51.380;0.098;2024-02-21T06:47:32;4.93;;;1.30;;
66421;SDS011;53228;51.380;0.098;2024-02-21T06:50:00;2.60;;;1.10;;
66421;SDS011;53228;51.380;0.098;2024-02-21T06:52:27;2.13;;;1.00;;
66421;SDS011;53228;51.380;0.098;2024-02-21T06:54:55;5.60;;;1.45;;
66421;SDS011;53228;51.380;0.098;2024-02-21T06:57:23;4.13;;;1.30;;
66421;SDS011;53228;51.380;0.098;2024-02-21T06:59:51;1.90;;;1.25;;
66421;SDS011;53228;51.380;0.098;2024-02-21T07:02:19;4.75;;;1.45;;
66421;SDS011;53228;51.380;0.098;2024-02-21T07:04:47;6.63;;;1.52;;
66421;SDS011;53228;51.380;0.098;2024-02-21T07:07:15;3.38;;;1.70;;
66421;SDS011;53228;51.380;0.098;2024-02-21T07:09:43;3.08;;;1.40;;
66421;SDS011;53228;51.380;0.098;2024-02-21T07:12:10;1.95;;;1.35;;
66421;SDS011;53228;51.380;0.098;2024-02-21T07:14:38;3.70;;;1.73;;
66421;SDS011;53228;51.380;0.098;2024-02-21T07:17:06;3.80;;;1.50;;
66421;SDS011;53228;51.380;0.098;2024-02-21T07:19:34;1.83;;;1.48;;
66421;SDS011;53228;51.380;0.098;2024-02-21T07:22:03;3.22;;;1.67;;
66421;SDS011;53228;51.380;0.098;2024-02-21T07:24:30;2.35;;;1.40;;
66421;SDS011;53228;51.380;0.098;2024-02-21T07:26:58;5.13;;;1.73;;
66421;SDS011;53228;51.380;0.098;2024-02-21T07:29:31;3.13;;;1.67;;
66421;SDS011;53228;51.380;0.098;2024-02-21T07:32:00;4.78;;;2.33;;
66421;SDS011;53228;51.380;0.098;2024-02-21T07:34:28;6.68;;;1.40;;
66421;SDS011;53228;51.380;0.098;2024-02-21T07:36:56;4.43;;;1.90;;
66421;SDS011;53228;51.380;0.098;2024-02-21T07:39:24;3.05;;;1.80;;
66421;SDS011;53228;51.380;0.098;2024-02-21T07:41:52;2.58;;;1.85;;
66421;SDS011;53228;51.380;0.098;2024-02-21T07:44:20;2.92;;;1.52;;
66421;SDS011;53228;51.380;0.098;2024-02-21T07:46:48;3.83;;;1.77;;
66421;SDS011;53228;51.380;0.098;2024-02-21T07:49:15;2.63;;;1.75;;
66421;SDS011;53228;51.380;0.098;2024-02-21T07:51:43;2.40;;;1.63;;
66421;SDS011;53228;51.380;0.098;2024-02-21T07:54:11;6.38;;;2.45;;
66421;SDS011;53228;51.380;0.098;2024-02-21T07:56:43;2.58;;;1.67;;
66421;SDS011;53228;51.380;0.098;2024-02-21T07:59:11;5.93;;;1.73;;
66421;SDS011;53228;51.380;0.098;2024-02-21T08:01:40;2.92;;;1.55;;
66421;SDS011;53228;51.380;0.098;2024-02-21T08:04:08;2.92;;;1.70;;
66421;SDS011;53228;51.380;0.098;2024-02-21T08:06:35;2.75;;;1.25;;
66421;SDS011;53228;51.380;0.098;2024-02-21T08:09:03;1.70;;;1.48;;
66421;SDS011;53228;51.380;0.098;2024-02-21T08:11:31;4.05;;;1.73;;
66421;SDS011;53228;51.380;0.098;2024-02-21T08:13:59;4.78;;;1.83;;
66421;SDS011;53228;51.380;0.098;2024-02-21T08:16:27;2.53;;;0.80;;
66421;SDS011;53228;51.380;0.098;2024-02-21T08:18:55;3.35;;;1.25;;
66421;SDS011;53228;51.380;0.098;2024-02-21T08:21:23;4.93;;;1.17;;
66421;SDS011;53228;51.380;0.098;2024-02-21T08:23:50;3.15;;;1.35;;
66421;SDS011;53228;51.380;0.098;2024-02-21T08:26:18;5.50;;;0.70;;
66421;SDS011;53228;51.380;0.098;2024-02-21T08:28:46;2.90;;;1.05;;
66421;SDS011;53228;51.380;0.098;2024-02-21T08:31:20;6.32;;;1.30;;
66421;SDS011;53228;51.380;0.098;2024-02-21T08:33:47;2.60;;;1.13;;
66421;SDS011;53228;51.380;0.098;2024-02-21T08:36:18;2.28;;;1.52;;
66421;SDS011;53228;51.380;0.098;2024-02-21T08:38:46;2.72;;;1.25;;
66421;SDS011;53228;51.380;0.098;2024-02-21T08:41:14;2.50;;;1.27;;
66421;SDS011;53228;51.380;0.098;2024-02-21T08:43:42;1.60;;;1.20;;
66421;SDS011;53228;51.380;0.098;2024-02-21T08:46:09;1.77;;;1.13;;
66421;SDS011;53228;51.380;0.098;2024-02-21T08:48:37;1.80;;;1.25;;
66421;SDS011;53228;51.380;0.098;2024-02-21T08:51:05;1.38;;;0.77;;
66421;SDS011;53228;51.380;0.098;2024-02-21T08:53:33;2.33;;;1.10;;
66421;SDS011;53228;51.380;0.098;2024-02-21T08:56:00;4.10;;;0.52;;
66421;SDS011;53228;51.380;0.098;2024-02-21T08:58:29;1.73;;;0.88;;
66421;SDS011;53228;51.380;0.098;2024-02-21T09:00:56;1.45;;;1.00;;
66421;SDS011;53228;51.380;0.098;2024-02-21T09:03:24;0.82;;;0.77;;
66421;SDS011;53228;51.380;0.098;2024-02-21T09:05:52;2.65;;;1.00;;
66421;SDS011;53228;51.380;0.098;2024-02-21T09:08:20;1.13;;;0.90;;
66421;SDS011;53228;51.380;0.098;2024-02-21T09:10:49;0.82;;;0.82;;
66421;SDS011;53228;51.380;0.098;2024-02-21T09:13:16;1.38;;;0.90;;
66421;SDS011;53228;51.380;0.098;2024-02-21T09:15:44;0.60;;;0.60;;
66421;SDS011;53228;51.380;0.098;2024-02-21T09:18:12;2.10;;;0.57;;
66421;SDS011;53228;51.380;0.098;2024-02-21T09:20:40;1.73;;;0.70;;
66421;SDS011;53228;51.380;0.098;2024-02-21T09:23:07;1.15;;;0.68;;
66421;SDS011;53228;51.380;0.098;2024-02-21T09:25:36;1.83;;;0.90;;
66421;SDS011;53228;51.380;0.098;2024-02-21T09:28:03;0.55;;;0.55;;
66421;SDS011;53228;51.380;0.098;2024-02-21T09:30:33;0.90;;;0.68;;
66421;SDS011;53228;51.380;0.098;2024-02-21T09:33:01;3.28;;;0.88;;
66421;SDS011;53228;51.380;0.098;2024-02-21T09:35:29;2.45;;;0.60;;
66421;SDS011;53228;51.380;0.098;2024-02-21T09:37:57;0.63;;;0.50;;
66421;SDS011;53228;51.380;0.098;2024-02-21T09:40:25;0.80;;;0.63;;
66421;SDS011;53228;51.380;0.098;2024-02-21T09:43:03;1.75;;;1.10;;
66421;SDS011;53228;51.380;0.098;2024-02-21T09:45:34;0.93;;;0.40;;
66421;SDS011;53228;51.380;0.098;2024-02-21T09:51:02;2.20;;;0.60;;
66421;SDS011;53228;51.380;0.098;2024-02-21T09:53:31;0.43;;;0.30;;
66421;SDS011;53228;51.380;0.098;2024-02-21T09:55:59;1.08;;;0.80;;
66421;SDS011;53228;51.380;0.098;2024-02-21T09:58:27;2.22;;;1.00;;
66421;SDS011;53228;51.380;0.098;2024-02-21T10:00:55;0.43;;;0.40;;
66421;SDS011;53228;51.380;0.098;2024-02-21T10:03:30;1.20;;;0.65;;
66421;SDS011;53228;51.380;0.098;2024-02-21T10:06:00;0.68;;;0.50;;
66421;SDS011;53228;51.380;0.098;2024-02-21T10:08:28;0.98;;;0.52;;
66421;SDS011;53228;51.380;0.098;2024-02-21T10:10:57;0.35;;;0.35;;
66421;SDS011;53228;51.380;0.098;2024-02-21T10:13:27;0.75;;;0.35;;
66421;SDS011;53228;51.380;0.098;2024-02-21T10:16:06;1.15;;;0.77;;
66421;SDS011;53228;51.380;0.098;2024-02-21T10:18:34;0.47;;;0.32;;
66421;SDS011;53228;51.380;0.098;2024-02-21T10:21:03;0.43;;;0.40;;
66421;SDS011;53228;51.380;0.098;2024-02-21T10:26:11;0.47;;;0.20;;
66421;SDS011;53228;51.380;0.098;2024-02-21T10:28:39;0.38;;;0.25;;
66421;SDS011;53228;51.380;0.098;2024-02-21T10:31:09;0.70;;;0.52;;
66421;SDS011;53228;51.380;0.098;2024-02-21T10:33:38;1.13;;;1.02;;
66421;SDS011;53228;51.380;0.098;2024-02-21T10:36:09;1.25;;;0.40;;
66421;SDS011;53228;51.380;0.098;2024-02-21T10:38:37;1.67;;;0.63;;
66421;SDS011;53228;51.380;0.098;2024-02-21T10:41:05;0.70;;;0.50;;
66421;SDS011;53228;51.380;0.098;2024-02-21T10:43:37;4.90;;;0.90;;
66421;SDS011;53228;51.380;0.098;2024-02-21T10:46:08;0.73;;;0.50;;
66421;SDS011;53228;51.380;0.098;2024-02-21T10:48:43;0.10;;;0.10;;
66421;SDS011;53228;51.380;0.098;2024-02-21T10:51:18;0.38;;;0.35;;
66421;SDS011;53228;51.380;0.098;2024-02-21T10:53:55;0.73;;;0.40;;
66421;SDS011;53228;51.380;0.098;2024-02-21T10:56:34;1.60;;;0.40;;
66421;SDS011;53228;51.380;0.098;2024-02-21T10:59:04;0.60;;;0.40;;
66421;SDS011;53228;51.380;0.098;2024-02-21T11:01:34;1.50;;;0.60;;
66421;SDS011;53228;51.380;0.098;2024-02-21T11:04:05;0.20;;;0.20;;
66421;SDS011;53228;51.380;0.098;2024-02-21T11:06:35;0.82;;;0.30;;
66421;SDS011;53228;51.380;0.098;2024-02-21T11:09:05;0.98;;;0.40;;
66421;SDS011;53228;51.380;0.098;2024-02-21T11:11:35;0.32;;;0.20;;
66421;SDS011;53228;51.380;0.098;2024-02-21T11:14:08;1.08;;;0.40;;
66421;SDS011;53228;51.380;0.098;2024-02-21T11:16:40;0.28;;;0.22;;
66421;SDS011;53228;51.380;0.098;2024-02-21T11:19:19;0.28;;;0.28;;
66421;SDS011;53228;51.380;0.098;2024-02-21T11:21:52;0.10;;;0.10;;
66421;SDS011;53228;51.380;0.098;2024-02-21T11:24:27;0.32;;;0.22;;
66421;SDS011;53228;51.380;0.098;2024-02-21T11:26:56;0.55;;;0.28;;
66421;SDS011;53228;51.380;0.098;2024-02-21T11:32:25;1.95;;;0.40;;
66421;SDS011;53228;51.380;0.098;2024-02-21T11:34:58;1.95;;;0.60;;
66421;SDS011;53228;51.380;0.098;2024-02-21T11:37:34;0.20;;;0.20;;
66421;SDS011;53228;51.380;0.098;2024-02-21T11:40:06;0.30;;;0.22;;
66421;SDS011;53228;51.380;0.098;2024-02-21T11:42:38;0.35;;;0.20;;
66421;SDS011;53228;51.380;0.098;2024-02-21T11:45:06;0.65;;;0.57;;
66421;SDS011;53228;51.380;0.098;2024-02-21T11:47:36;2.45;;;0.65;;
66421;SDS011;53228;51.380;0.098;2024-02-21T11:50:11;0.85;;;0.40;;
66421;SDS011;53228;51.380;0.098;2024-02-21T11:52:42;0.60;;;0.30;;
66421;SDS011;53228;51.380;0.098;2024-02-21T11:55:10;0.73;;;0.25;;
66421;SDS011;53228;51.380;0.098;2024-02-21T11:57:38;0.63;;;0.20;;
66421;SDS011;53228;51.380;0.098;2024-02-21T12:00:12;3.30;;;0.40;;
66421;SDS011;53228;51.380;0.098;2024-02-21T12:02:42;0.30;;;0.20;;
66421;SDS011;53228;51.380;0.098;2024-02-21T12:05:11;0.40;;;0.40;;
66421;SDS011;53228;51.380;0.098;2024-02-21T12:07:39;1.45;;;0.43;;
66421;SDS011;53228;51.380;0.098;2024-02-21T12:10:10;0.65;;;0.30;;
66421;SDS011;53228;51.380;0.098;2024-02-21T12:12:39;1.83;;;0.60;;
66421;SDS011;53228;51.380;0.098;2024-02-21T12:15:07;0.25;;;0.25;;
66421;SDS011;53228;51.380;0.098;2024-02-21T12:17:36;0.38;;;0.28;;
66421;SDS011;53228;51.380;0.098;2024-02-21T12:20:04;0.80;;;0.50;;
66421;SDS011;53228;51.380;0.098;2024-02-21T12:22:37;2.47;;;0.35;;
66421;SDS011;53228;51.380;0.098;2024-02-21T12:25:18;0.20;;;0.20;;
66421;SDS011;53228;51.380;0.098;2024-02-21T12:27:47;0.20;;;0.20;;
66421;SDS011;53228;51.380;0.098;2024-02-21T12:30:16;0.88;;;0.50;;
66421;SDS011;53228;51.380;0.098;2024-02-21T12:32:45;2.45;;;0.43;;
66421;SDS011;53228;51.380;0.098;2024-02-21T12:35:13;2.20;;;0.28;;
66421;SDS011;53228;51.380;0.098;2024-02-21T12:37:41;1.10;;;0.17;;
66421;SDS011;53228;51.380;0.098;2024-02-21T12:40:09;0.57;;;0.25;;
66421;SDS011;53228;51.380;0.098;2024-02-21T12:42:41;0.28;;;0.03;;
66421;SDS011;53228;51.380;0.098;2024-02-21T12:45:09;1.02;;;0.20;;
66421;SDS011;53228;51.380;0.098;2024-02-21T12:47:37;0.22;;;0.20;;
66421;SDS011;53228;51.380;0.098;2024-02-21T12:50:06;6.10;;;2.75;;
66421;SDS011;53228;51.380;0.098;2024-02-21T12:52:35;2.45;;;1.02;;
66421;SDS011;53228;51.380;0.098;2024-02-21T12:55:02;0.30;;;0.30;;
66421;SDS011;53228;51.380;0.098;2024-02-21T12:57:30;1.52;;;0.30;;
66421;SDS011;53228;51.380;0.098;2024-02-21T12:59:58;1.00;;;1.00;;
66421;SDS011;53228;51.380;0.098;2024-02-21T13:02:26;0.22;;;0.22;;
66421;SDS011;53228;51.380;0.098;2024-02-21T13:04:54;1.23;;;0.32;;
66421;SDS011;53228;51.380;0.098;2024-02-21T13:07:22;0.13;;;0.13;;
66421;SDS011;53228;51.380;0.098;2024-02-21T13:09:49;3.28;;;2.03;;
66421;SDS011;53228;51.380;0.098;2024-02-21T13:12:17;0.55;;;0.30;;
66421;SDS011;53228;51.380;0.098;2024-02-21T13:14:45;0.70;;;0.70;;
66421;SDS011;53228;51.380;0.098;2024-02-21T13:17:12;0.30;;;0.30;;
66421;SDS011;53228;51.380;0.098;2024-02-21T13:19:42;0.90;;;0.20;;
66421;SDS011;53228;51.380;0.098;2024-02-21T13:22:10;0.70;;;0.20;;
66421;SDS011;53228;51.380;0.098;2024-02-21T13:24:38;0.32;;;0.30;;
66421;SDS011;53228;51.380;0.098;2024-02-21T13:27:06;0.40;;;0.40;;
66421;SDS011;53228;51.380;0.098;2024-02-21T13:29:34;1.83;;;0.40;;
66421;SDS011;53228;51.380;0.098;2024-02-21T13:32:01;0.80;;;0.45;;
66421;SDS011;53228;51.380;0.098;2024-02-21T13:34:32;3.60;;;1.80;;
66421;SDS011;53228;51.380;0.098;2024-02-21T13:37:00;0.32;;;0.30;;
66421;SDS011;53228;51.380;0.098;2024-02-21T13:39:28;0.90;;;0.60;;
66421;SDS011;53228;51.380;0.098;2024-02-21T13:41:56;0.65;;;0.40;;
66421;SDS011;53228;51.380;0.098;2024-02-21T13:44:26;1.25;;;0.70;;
66421;SDS011;53228;51.380;0.098;2024-02-21T13:46:54;0.50;;;0.50;;
66421;SDS011;53228;51.380;0.098;2024-02-21T13:49:21;0.47;;;0.47;;
66421;SDS011;53228;51.380;0.098;2024-02-21T13:51:49;2.50;;;1.30;;
66421;SDS011;53228;51.380;0.098;2024-02-21T13:54:17;0.50;;;0.50;;
66421;SDS011;53228;51.380;0.098;2024-02-21T13:56:46;0.60;;;0.60;;
66421;SDS011;53228;51.380;0.098;2024-02-21T13:59:15;1.77;;;0.70;;
66421;SDS011;53228;51.380;0.098;2024-02-21T14:01:43;0.85;;;0.75;;
66421;SDS011;53228;51.380;0.098;2024-02-21T14:04:11;0.60;;;0.60;;
66421;SDS011;53228;51.380;0.098;2024-02-21T14:06:39;0.80;;;0.80;;
66421;SDS011;53228;51.380;0.098;2024-02-21T14:09:11;0.60;;;0.60;;
66421;SDS011;53228;51.380;0.098;2024-02-21T14:11:39;0.68;;;0.68;;
66421;SDS011;53228;51.380;0.098;2024-02-21T14:14:08;0.70;;;0.70;;
66421;SDS011;53228;51.380;0.098;2024-02-21T14:16:36;0.47;;;0.47;;
66421;SDS011;53228;51.380;0.098;2024-02-21T14:19:04;0.73;;;0.60;;
66421;SDS011;53228;51.380;0.098;2024-02-21T14:21:34;0.60;;;0.60;;
66421;SDS011;53228;51.380;0.098;2024-02-21T14:24:05;0.50;;;0.50;;
66421;SDS011;53228;51.380;0.098;2024-02-21T14:26:33;0.70;;;0.70;;
66421;SDS011;53228;51.380;0.098;2024-02-21T14:29:03;0.98;;;0.70;;
66421;SDS011;53228;51.380;0.098;2024-02-21T14:31:31;0.45;;;0.45;;
66421;SDS011;53228;51.380;0.098;2024-02-21T14:33:59;0.40;;;0.40;;
66421;SDS011;53228;51.380;0.098;2024-02-21T14:36:27;0.50;;;0.50;;
66421;SDS011;53228;51.380;0.098;2024-02-21T14:38:55;0.57;;;0.57;;
66421;SDS011;53228;51.380;0.098;2024-02-21T14:41:23;0.80;;;0.80;;
66421;SDS011;53228;51.380;0.098;2024-02-21T14:43:51;1.00;;;0.60;;
66421;SDS011;53228;51.380;0.098;2024-02-21T14:46:19;0.50;;;0.50;;
66421;SDS011;53228;51.380;0.098;2024-02-21T14:48:47;0.50;;;0.50;;
66421;SDS011;53228;51.380;0.098;2024-02-21T14:51:15;2.78;;;0.60;;
66421;SDS011;53228;51.380;0.098;2024-02-21T14:53:42;2.58;;;0.70;;
66421;SDS011;53228;51.380;0.098;2024-02-21T14:56:13;0.70;;;0.60;;
66421;SDS011;53228;51.380;0.098;2024-02-21T14:58:42;2.38;;;0.70;;
66421;SDS011;53228;51.380;0.098;2024-02-21T15:01:15;2.47;;;0.60;;
66421;SDS011;53228;51.380;0.098;2024-02-21T15:03:42;2.47;;;0.70;;
66421;SDS011;53228;51.380;0.098;2024-02-21T15:06:10;1.33;;;0.60;;
66421;SDS011;53228;51.380;0.098;2024-02-21T15:08:39;0.30;;;0.30;;